Time;durP1;ratioP1;P1;durP2;ratioP2;P2;SDS_P1;SDS_P2;PMS_P1;PMS_P2;Temp;Humidity;BMP_temperature;BMP_pressure;BME280_temperature;BME280_humidity;BME280_pressure;Samples;Min_cycle;Max_cycle;Signal;HPM_P1;HPM_P2
2024/01/31 00:00:43;;;;;;;26.80;16.05;;;;;;;;;;5049867;28;20202;-68
2024/01/31 00:03:10;;;;;;;24.25;15.30;;;;;;;;;;5049907;28;20200;-68
2024/01/31 00:05:36;;;;;;;22.17;14.77;;;;;;;;;;5050406;28;20267;-68
2024/01/31 00:08:02;;;;;;;24.38;14.77;;;;;;;;;;5052941;28;20221;-68
2024/01/31 00:10:28;;;;;;;25.88;14.80;;;;;;;;;;5052553;28;20251;-68
2024/01/31 00:12:55;;;;;;;24.58;15.07;;;;;;;;;;5051653;28;20624;-68
2024/01/31 00:15:21;;;;;;;26.23;15.73;;;;;;;;;;5051980;28;20736;-68
2024/01/31 00:17:48;;;;;;;29.40;15.80;;;;;;;;;;5051824;28;20552;-68
2024/01/31 00:20:15;;;;;;;23.50;15.15;;;;;;;;;;5051410;28;20278;-68
2024/01/31 00:22:41;;;;;;;28.90;14.93;;;;;;;;;;5052016;28;20208;-68
2024/01/31 00:25:08;;;;;;;26.73;14.93;;;;;;;;;;5052122;28;20197;-68
2024/01/31 00:27:34;;;;;;;20.40;13.90;;;;;;;;;;5051996;28;20217;-69
2024/01/31 00:30:00;;;;;;;21.55;14.82;;;;;;;;;;5051566;28;20212;-69
2024/01/31 00:32:27;;;;;;;23.13;14.68;;;;;;;;;;5051846;28;20247;-68
2024/01/31 00:34:54;;;;;;;26.33;15.27;;;;;;;;;;5050543;28;20197;-69
2024/01/31 00:37:20;;;;;;;24.15;14.40;;;;;;;;;;5051921;28;20270;-69
2024/01/31 00:39:47;;;;;;;23.77;14.40;;;;;;;;;;5051614;28;20262;-69
2024/01/31 00:42:13;;;;;;;24.23;14.90;;;;;;;;;;5051697;28;20735;-69
2024/01/31 00:44:41;;;;;;;22.38;14.73;;;;;;;;;;5051348;28;20197;-69
2024/01/31 00:47:07;;;;;;;22.73;14.32;;;;;;;;;;5051733;28;20221;-68
2024/01/31 00:49:33;;;;;;;21.85;14.60;;;;;;;;;;5051148;28;20204;-68
2024/01/31 00:52:01;;;;;;;22.02;14.10;;;;;;;;;;5051774;28;20209;-68
2024/01/31 00:54:27;;;;;;;23.33;14.50;;;;;;;;;;5051459;28;20292;-68
2024/01/31 00:56:53;;;;;;;24.15;14.25;;;;;;;;;;5052244;28;20224;-68
2024/01/31 00:59:20;;;;;;;26.10;15.00;;;;;;;;;;5051514;28;20208;-68
2024/01/31 01:01:46;;;;;;;19.55;14.05;;;;;;;;;;5051738;28;20201;-68
2024/01/31 01:04:12;;;;;;;27.95;14.65;;;;;;;;;;5051164;28;20254;-68
2024/01/31 01:06:40;;;;;;;29.08;15.55;;;;;;;;;;5051832;28;20221;-68
2024/01/31 01:09:07;;;;;;;23.95;14.95;;;;;;;;;;5051364;28;20220;-68
2024/01/31 01:11:34;;;;;;;25.15;14.68;;;;;;;;;;5051922;28;20197;-68
2024/01/31 01:14:00;;;;;;;21.60;14.68;;;;;;;;;;5051182;28;20623;-68
2024/01/31 01:16:26;;;;;;;22.58;14.82;;;;;;;;;;5051643;28;20355;-68
2024/01/31 01:18:53;;;;;;;22.70;14.75;;;;;;;;;;5050830;28;20195;-68
2024/01/31 01:21:19;;;;;;;20.65;13.48;;;;;;;;;;5051487;28;20201;-68
2024/01/31 01:23:45;;;;;;;24.42;14.77;;;;;;;;;;5051135;28;20686;-68
2024/01/31 01:26:13;;;;;;;27.50;15.15;;;;;;;;;;5051428;28;20221;-68
2024/01/31 01:28:40;;;;;;;26.23;14.82;;;;;;;;;;5051269;28;20693;-68
2024/01/31 01:31:06;;;;;;;21.75;14.75;;;;;;;;;;5051099;28;20209;-68
2024/01/31 01:33:32;;;;;;;24.30;14.30;;;;;;;;;;5051239;28;20251;-68
2024/01/31 01:35:58;;;;;;;24.20;14.98;;;;;;;;;;5051427;28;20221;-69
2024/01/31 01:38:25;;;;;;;21.85;15.07;;;;;;;;;;5051458;28;20200;-69
2024/01/31 01:40:51;;;;;;;23.73;15.65;;;;;;;;;;5051040;28;20208;-68
2024/01/31 01:43:19;;;;;;;21.25;13.90;;;;;;;;;;5051151;28;20205;-68
2024/01/31 01:45:45;;;;;;;25.60;15.70;;;;;;;;;;5052978;28;20225;-69
2024/01/31 01:48:12;;;;;;;23.98;15.52;;;;;;;;;;5054962;28;20240;-68
2024/01/31 01:50:40;;;;;;;25.45;14.55;;;;;;;;;;5054856;28;20205;-68
2024/01/31 01:53:07;;;;;;;20.73;14.25;;;;;;;;;;5054625;28;20244;-69
2024/01/31 01:55:33;;;;;;;20.98;14.95;;;;;;;;;;5054841;28;20632;-69
2024/01/31 01:58:00;;;;;;;27.17;14.35;;;;;;;;;;5054583;28;20677;-69
2024/01/31 02:00:28;;;;;;;21.50;13.77;;;;;;;;;;5054222;28;20208;-69
2024/01/31 02:02:54;;;;;;;25.63;14.63;;;;;;;;;;5054397;28;20201;-69
2024/01/31 02:05:21;;;;;;;23.00;14.63;;;;;;;;;;5054632;28;20197;-69
2024/01/31 02:07:47;;;;;;;25.70;14.80;;;;;;;;;;5055104;28;20623;-69
2024/01/31 02:10:14;;;;;;;28.75;14.20;;;;;;;;;;5054206;28;20736;-69
2024/01/31 02:12:40;;;;;;;22.27;14.60;;;;;;;;;;5054594;28;20201;-69
2024/01/31 02:15:07;;;;;;;21.63;14.35;;;;;;;;;;5054193;28;20223;-68
2024/01/31 02:17:35;;;;;;;23.00;15.13;;;;;;;;;;5054466;28;20251;-68
2024/01/31 02:20:01;;;;;;;24.15;15.00;;;;;;;;;;5055439;28;20205;-69
2024/01/31 02:22:30;;;;;;;25.60;14.52;;;;;;;;;;5055159;28;20228;-69
2024/01/31 02:24:56;;;;;;;23.58;14.02;;;;;;;;;;5053738;28;20673;-69
2024/01/31 02:27:23;;;;;;;20.50;13.40;;;;;;;;;;5053977;28;20299;-69
2024/01/31 02:29:49;;;;;;;21.58;14.23;;;;;;;;;;5053910;28;20525;-69
2024/01/31 02:32:15;;;;;;;29.85;14.00;;;;;;;;;;5053801;28;20565;-69
2024/01/31 02:34:41;;;;;;;19.38;13.68;;;;;;;;;;5053464;28;20626;-69
2024/01/31 02:37:08;;;;;;;19.88;13.50;;;;;;;;;;5054197;28;20303;-69
2024/01/31 02:39:35;;;;;;;20.02;12.85;;;;;;;;;;5053673;28;20201;-69
2024/01/31 02:42:02;;;;;;;19.05;13.80;;;;;;;;;;5053681;28;20678;-69
2024/01/31 02:44:28;;;;;;;19.35;13.43;;;;;;;;;;5053674;28;20294;-69
2024/01/31 02:46:55;;;;;;;23.80;13.77;;;;;;;;;;5054051;28;20271;-69
2024/01/31 02:49:21;;;;;;;26.33;14.07;;;;;;;;;;5053161;28;20593;-69
2024/01/31 02:51:47;;;;;;;22.75;14.43;;;;;;;;;;5053825;28;20213;-69
2024/01/31 02:54:13;;;;;;;24.77;14.52;;;;;;;;;;5053212;28;20201;-68
2024/01/31 02:56:41;;;;;;;21.23;13.63;;;;;;;;;;5052773;28;20217;-69
2024/01/31 02:59:07;;;;;;;22.83;14.23;;;;;;;;;;5053322;28;20224;-69
2024/01/31 03:01:36;;;;;;;24.75;15.68;;;;;;;;;;5053767;28;20251;-68
2024/01/31 03:04:02;;;;;;;24.77;14.80;;;;;;;;;;5053229;28;20205;-69
2024/01/31 03:06:28;;;;;;;28.15;15.15;;;;;;;;;;5053212;28;20278;-69
2024/01/31 03:08:54;;;;;;;23.80;15.10;;;;;;;;;;5053207;28;20271;-68
2024/01/31 03:11:20;;;;;;;28.77;15.55;;;;;;;;;;5053103;28;20208;-68
2024/01/31 03:13:51;;;;;;;23.92;14.65;;;;;;;;;;5053070;28;20274;-68
2024/01/31 03:16:18;;;;;;;28.63;15.73;;;;;;;;;;5053237;28;20220;-68
2024/01/31 03:18:44;;;;;;;27.67;15.90;;;;;;;;;;5053029;28;20228;-68
2024/01/31 03:21:10;;;;;;;25.15;15.35;;;;;;;;;;5052944;28;20205;-69
2024/01/31 03:23:37;;;;;;;21.10;14.30;;;;;;;;;;5052801;28;20232;-68
2024/01/31 03:26:04;;;;;;;23.50;14.73;;;;;;;;;;5053188;28;20287;-68
2024/01/31 03:28:30;;;;;;;24.88;15.27;;;;;;;;;;5053052;28;20224;-69
2024/01/31 03:30:57;;;;;;;28.50;17.40;;;;;;;;;;5052670;28;20548;-68
2024/01/31 03:33:24;;;;;;;29.08;16.88;;;;;;;;;;5052504;28;20617;-68
2024/01/31 03:35:50;;;;;;;32.92;16.48;;;;;;;;;;5052942;28;20234;-68
2024/01/31 03:38:16;;;;;;;27.90;16.70;;;;;;;;;;5052803;28;20243;-68
2024/01/31 03:40:42;;;;;;;28.38;16.02;;;;;;;;;;5052526;28;20222;-68
2024/01/31 03:43:09;;;;;;;28.90;15.45;;;;;;;;;;5052333;28;20209;-68
2024/01/31 03:45:35;;;;;;;28.23;16.55;;;;;;;;;;5052582;28;20225;-68
2024/01/31 03:48:02;;;;;;;27.73;16.48;;;;;;;;;;5052534;28;20228;-68
2024/01/31 03:50:29;;;;;;;25.35;15.13;;;;;;;;;;5052172;28;20197;-68
2024/01/31 03:52:55;;;;;;;32.67;16.38;;;;;;;;;;5052421;28;20197;-68
2024/01/31 03:55:21;;;;;;;26.75;16.00;;;;;;;;;;5052630;28;20197;-68
2024/01/31 03:57:47;;;;;;;26.23;15.85;;;;;;;;;;5052770;28;20259;-69
2024/01/31 04:00:14;;;;;;;28.60;16.23;;;;;;;;;;5052168;28;20197;-69
2024/01/31 04:02:40;;;;;;;21.80;14.75;;;;;;;;;;5052138;28;20255;-69
2024/01/31 04:05:11;;;;;;;27.58;15.88;;;;;;;;;;5052068;28;20611;-69
2024/01/31 04:07:37;;;;;;;30.48;16.23;;;;;;;;;;5052174;28;20287;-69
2024/01/31 04:10:04;;;;;;;27.65;15.05;;;;;;;;;;5051783;28;20278;-69
2024/01/31 04:12:30;;;;;;;31.10;16.95;;;;;;;;;;5052587;28;20620;-69
2024/01/31 04:14:56;;;;;;;28.23;16.02;;;;;;;;;;5051929;28;20209;-69
2024/01/31 04:17:23;;;;;;;24.80;15.15;;;;;;;;;;5052118;28;20278;-69
2024/01/31 04:19:49;;;;;;;29.10;17.15;;;;;;;;;;5051735;28;20192;-69
2024/01/31 04:22:17;;;;;;;25.45;15.77;;;;;;;;;;5051985;28;20686;-69
2024/01/31 04:24:43;;;;;;;28.48;16.25;;;;;;;;;;5051844;28;20205;-69
2024/01/31 04:27:09;;;;;;;29.13;16.17;;;;;;;;;;5051942;28;20225;-69
2024/01/31 04:29:38;;;;;;;29.15;15.98;;;;;;;;;;5051838;28;20213;-68
2024/01/31 04:32:04;;;;;;;28.67;16.52;;;;;;;;;;5051965;28;20258;-68
2024/01/31 04:34:30;;;;;;;25.63;14.73;;;;;;;;;;5052777;28;20201;-69
2024/01/31 04:36:56;;;;;;;23.45;15.23;;;;;;;;;;5052981;28;20255;-69
2024/01/31 04:39:24;;;;;;;24.80;14.95;;;;;;;;;;5051658;28;20208;-69
2024/01/31 04:41:50;;;;;;;26.40;16.27;;;;;;;;;;5051914;28;20209;-69
2024/01/31 04:44:16;;;;;;;25.63;14.70;;;;;;;;;;5051514;28;20231;-69
2024/01/31 04:46:43;;;;;;;22.90;14.48;;;;;;;;;;5051649;28;20224;-69
2024/01/31 04:49:09;;;;;;;26.27;14.68;;;;;;;;;;5051060;28;20267;-69
2024/01/31 04:51:40;;;;;;;24.27;14.68;;;;;;;;;;5051574;28;20197;-68
2024/01/31 04:54:06;;;;;;;25.92;15.07;;;;;;;;;;5051710;28;20238;-68
2024/01/31 04:56:34;;;;;;;27.73;14.80;;;;;;;;;;5051627;28;20279;-68
2024/01/31 04:59:00;;;;;;;24.88;14.30;;;;;;;;;;5051445;28;20193;-69
2024/01/31 05:01:26;;;;;;;25.63;15.32;;;;;;;;;;5052067;28;20205;-69
2024/01/31 05:03:53;;;;;;;24.20;15.48;;;;;;;;;;5051246;28;20205;-68
2024/01/31 05:06:19;;;;;;;26.17;15.30;;;;;;;;;;5047226;28;20217;-68
2024/01/31 05:08:46;;;;;;;27.38;15.52;;;;;;;;;;5031994;28;20260;-68
2024/01/31 05:11:13;;;;;;;23.63;14.32;;;;;;;;;;5031422;28;20201;-68
2024/01/31 05:13:41;;;;;;;22.20;14.10;;;;;;;;;;5031015;28;20625;-68
2024/01/31 05:16:07;;;;;;;22.85;13.90;;;;;;;;;;5031571;28;20279;-68
2024/01/31 05:18:34;;;;;;;25.90;14.90;;;;;;;;;;5031882;28;20197;-69
2024/01/31 05:21:00;;;;;;;24.75;14.57;;;;;;;;;;5033368;28;20206;-69
2024/01/31 05:23:26;;;;;;;22.00;14.43;;;;;;;;;;5035262;28;20206;-68
2024/01/31 05:25:53;;;;;;;20.52;13.55;;;;;;;;;;5035600;28;20276;-69
2024/01/31 05:28:20;;;;;;;20.90;13.80;;;;;;;;;;5035180;28;20574;-69
2024/01/31 05:30:47;;;;;;;23.35;13.63;;;;;;;;;;5034979;28;20201;-69
2024/01/31 05:33:14;;;;;;;19.27;13.57;;;;;;;;;;5035029;28;20206;-69
2024/01/31 05:35:40;;;;;;;22.65;14.10;;;;;;;;;;5035198;28;20283;-68
2024/01/31 05:38:06;;;;;;;23.90;13.20;;;;;;;;;;5035209;28;20737;-69
2024/01/31 05:40:33;;;;;;;24.50;14.30;;;;;;;;;;5034516;28;20694;-69
2024/01/31 05:42:59;;;;;;;26.95;14.93;;;;;;;;;;5034616;28;20678;-69
2024/01/31 05:45:26;;;;;;;20.42;13.80;;;;;;;;;;5034793;28;20867;-69
2024/01/31 05:47:54;;;;;;;28.52;15.20;;;;;;;;;;5035138;28;20259;-69
2024/01/31 05:50:20;;;;;;;19.63;13.95;;;;;;;;;;5034335;28;20698;-68
2024/01/31 05:52:46;;;;;;;27.10;15.27;;;;;;;;;;5034576;28;20671;-69
2024/01/31 05:55:15;;;;;;;17.65;13.60;;;;;;;;;;5034638;28;20209;-68
2024/01/31 05:57:41;;;;;;;19.35;13.43;;;;;;;;;;5034796;28;20208;-68
2024/01/31 06:00:10;;;;;;;20.33;13.65;;;;;;;;;;5034107;28;20198;-68
2024/01/31 06:02:36;;;;;;;18.40;12.80;;;;;;;;;;5034277;28;20659;-68
2024/01/31 06:05:04;;;;;;;16.67;12.52;;;;;;;;;;5034397;28;20721;-69
2024/01/31 06:07:31;;;;;;;16.67;12.65;;;;;;;;;;5034878;28;20205;-68
2024/01/31 06:09:57;;;;;;;16.00;12.70;;;;;;;;;;5033981;28;20217;-68
2024/01/31 06:12:23;;;;;;;19.45;12.85;;;;;;;;;;5034162;28;20201;-68
2024/01/31 06:14:49;;;;;;;16.38;12.68;;;;;;;;;;5033931;28;20276;-68
2024/01/31 06:17:17;;;;;;;19.88;13.60;;;;;;;;;;5034592;28;20225;-68
2024/01/31 06:19:43;;;;;;;30.92;14.60;;;;;;;;;;5034319;28;20194;-69
2024/01/31 06:22:10;;;;;;;19.55;13.68;;;;;;;;;;5034258;28;20674;-68
2024/01/31 06:24:37;;;;;;;24.63;14.02;;;;;;;;;;5034239;28;20202;-68
2024/01/31 06:27:03;;;;;;;22.95;13.43;;;;;;;;;;5034388;28;20217;-68
2024/01/31 06:29:29;;;;;;;22.05;14.93;;;;;;;;;;5033901;28;20279;-69
2024/01/31 06:31:59;;;;;;;21.63;13.82;;;;;;;;;;5033084;28;20205;-69
2024/01/31 06:34:26;;;;;;;21.48;14.45;;;;;;;;;;5033777;28;20331;-69
2024/01/31 06:36:52;;;;;;;20.88;14.23;;;;;;;;;;5033811;28;20272;-63
2024/01/31 06:39:20;;;;;;;20.52;14.00;;;;;;;;;;5033713;28;20217;-63
2024/01/31 06:41:46;;;;;;;17.13;13.45;;;;;;;;;;5033985;28;20202;-63
2024/01/31 06:44:12;;;;;;;23.17;14.95;;;;;;;;;;5033592;28;20202;-63
2024/01/31 06:46:38;;;;;;;21.20;14.30;;;;;;;;;;5034076;28;20283;-64
2024/01/31 06:49:05;;;;;;;23.65;13.93;;;;;;;;;;5033856;28;20222;-63
2024/01/31 06:51:31;;;;;;;18.13;12.60;;;;;;;;;;5033629;28;20209;-63
2024/01/31 06:53:58;;;;;;;21.13;13.07;;;;;;;;;;5033310;28;20201;-63
2024/01/31 06:56:26;;;;;;;19.13;13.65;;;;;;;;;;5033779;28;20581;-63
2024/01/31 06:58:54;;;;;;;18.52;12.82;;;;;;;;;;5033494;28;20620;-63
2024/01/31 07:01:21;;;;;;;20.10;14.30;;;;;;;;;;5033605;28;20308;-63
2024/01/31 07:03:47;;;;;;;20.85;12.38;;;;;;;;;;5033254;28;20252;-63
2024/01/31 07:06:15;;;;;;;20.33;14.02;;;;;;;;;;5033587;28;20218;-63
2024/01/31 07:08:41;;;;;;;20.92;13.80;;;;;;;;;;5033187;28;20202;-63
2024/01/31 07:11:08;;;;;;;19.10;13.10;;;;;;;;;;5032833;28;20569;-64
2024/01/31 07:13:36;;;;;;;20.63;14.13;;;;;;;;;;5032778;28;20736;-63
2024/01/31 07:16:02;;;;;;;16.23;11.65;;;;;;;;;;5029066;28;20706;-62
2024/01/31 07:18:28;;;;;;;23.73;13.30;;;;;;;;;;5042980;28;20263;-64
2024/01/31 07:20:55;;;;;;;23.88;14.35;;;;;;;;;;5047036;28;20217;-63
2024/01/31 07:23:21;;;;;;;23.08;14.10;;;;;;;;;;5046414;28;20258;-63
2024/01/31 07:25:47;;;;;;;19.63;13.82;;;;;;;;;;5046888;28;20232;-63
2024/01/31 07:28:13;;;;;;;20.33;13.65;;;;;;;;;;5046756;28;20217;-63
2024/01/31 07:30:41;;;;;;;20.45;13.80;;;;;;;;;;5046482;28;20229;-63
2024/01/31 07:33:07;;;;;;;20.20;14.13;;;;;;;;;;5046283;28;20264;-62
2024/01/31 07:35:34;;;;;;;21.50;13.20;;;;;;;;;;5036664;28;20267;-62
2024/01/31 07:38:00;;;;;;;26.48;14.10;;;;;;;;;;5033022;28;20682;-62
2024/01/31 07:40:26;;;;;;;20.35;13.35;;;;;;;;;;5023809;28;20213;-62
2024/01/31 07:42:52;;;;;;;21.98;13.88;;;;;;;;;;5028104;28;20270;-62
2024/01/31 07:45:19;;;;;;;22.90;13.82;;;;;;;;;;5043845;28;20205;-62
2024/01/31 07:47:46;;;;;;;21.40;13.45;;;;;;;;;;5031960;28;20210;-62
2024/01/31 07:50:13;;;;;;;21.13;14.25;;;;;;;;;;5032457;28;20229;-63
2024/01/31 07:52:40;;;;;;;19.00;12.95;;;;;;;;;;5031976;28;20213;-63
2024/01/31 07:55:07;;;;;;;28.73;14.57;;;;;;;;;;5024912;28;20260;-64
2024/01/31 07:57:33;;;;;;;31.50;15.05;;;;;;;;;;5027044;28;20209;-65
2024/01/31 07:59:59;;;;;;;31.42;13.50;;;;;;;;;;5042849;28;20221;-65
2024/01/31 08:02:26;;;;;;;34.78;15.35;;;;;;;;;;5045234;28;20240;-63
2024/01/31 08:04:54;;;;;;;34.65;14.70;;;;;;;;;;5044187;28;20213;-63
2024/01/31 08:07:20;;;;;;;24.48;15.65;;;;;;;;;;5042046;28;20228;-64
2024/01/31 08:09:47;;;;;;;24.92;14.98;;;;;;;;;;5026417;28;20233;-62
2024/01/31 08:12:13;;;;;;;29.70;13.70;;;;;;;;;;5032222;28;20280;-62
2024/01/31 08:14:39;;;;;;;21.50;13.48;;;;;;;;;;5024155;28;20635;-63
2024/01/31 08:17:05;;;;;;;25.33;13.82;;;;;;;;;;5031987;28;20696;-61
2024/01/31 08:19:32;;;;;;;22.15;12.98;;;;;;;;;;5043504;28;20244;-62
2024/01/31 08:21:59;;;;;;;27.27;13.70;;;;;;;;;;5044931;28;20221;-62
2024/01/31 08:24:25;;;;;;;25.00;14.10;;;;;;;;;;5045675;28;20205;-64
2024/01/31 08:26:52;;;;;;;25.55;13.65;;;;;;;;;;5045918;28;20258;-61
2024/01/31 08:29:18;;;;;;;24.13;14.38;;;;;;;;;;5042754;28;21325;-64
2024/01/31 08:31:44;;;;;;;22.77;14.00;;;;;;;;;;5031159;28;20206;-63
2024/01/31 08:34:11;;;;;;;27.45;14.48;;;;;;;;;;5023329;28;20205;-64
2024/01/31 08:36:37;;;;;;;27.88;15.13;;;;;;;;;;5024026;28;20646;-64
2024/01/31 08:39:05;;;;;;;22.17;13.43;;;;;;;;;;5023645;28;20541;-64
2024/01/31 08:41:31;;;;;;;24.02;13.23;;;;;;;;;;5040953;28;20235;-64
2024/01/31 08:43:58;;;;;;;29.30;13.48;;;;;;;;;;5025041;28;20217;-62
2024/01/31 08:46:26;;;;;;;23.63;13.52;;;;;;;;;;5026490;28;20280;-61
2024/01/31 08:48:52;;;;;;;23.77;14.20;;;;;;;;;;5028745;28;20725;-62
2024/01/31 08:51:19;;;;;;;20.88;13.35;;;;;;;;;;5023840;28;20603;-62
2024/01/31 08:53:45;;;;;;;24.20;13.98;;;;;;;;;;5024111;28;20889;-64
2024/01/31 08:56:13;;;;;;;26.02;13.80;;;;;;;;;;5035307;28;20221;-62
2024/01/31 08:58:39;;;;;;;32.67;15.57;;;;;;;;;;5028702;28;20235;-61
2024/01/31 09:01:06;;;;;;;30.65;17.25;;;;;;;;;;5037245;28;20307;-62
2024/01/31 09:03:33;;;;;;;37.85;18.92;;;;;;;;;;5045427;28;20223;-63
2024/01/31 09:05:59;;;;;;;38.28;18.38;;;;;;;;;;5028168;28;20668;-64
2024/01/31 09:08:25;;;;;;;34.90;15.80;;;;;;;;;;5027990;28;20631;-63
2024/01/31 09:10:51;;;;;;;31.50;15.27;;;;;;;;;;5029461;28;20225;-63
2024/01/31 09:13:19;;;;;;;32.45;15.55;;;;;;;;;;5027066;28;20218;-63
2024/01/31 09:15:45;;;;;;;27.65;14.90;;;;;;;;;;5027979;28;20290;-62
2024/01/31 09:18:11;;;;;;;31.23;15.07;;;;;;;;;;5027416;28;20787;-62
2024/01/31 09:20:38;;;;;;;25.55;14.82;;;;;;;;;;5026605;28;20224;-63
2024/01/31 09:23:04;;;;;;;29.27;14.80;;;;;;;;;;5027905;28;20874;-63
2024/01/31 09:25:31;;;;;;;25.40;14.55;;;;;;;;;;5027555;28;20272;-63
2024/01/31 09:27:57;;;;;;;29.40;15.27;;;;;;;;;;5027867;28;20213;-63
2024/01/31 09:30:24;;;;;;;26.10;14.45;;;;;;;;;;5026814;28;20218;-63
2024/01/31 09:32:51;;;;;;;25.48;14.57;;;;;;;;;;5027216;28;20264;-63
2024/01/31 09:35:17;;;;;;;21.02;13.85;;;;;;;;;;5028157;28;20228;-63
2024/01/31 09:37:43;;;;;;;25.08;13.43;;;;;;;;;;5029364;28;20244;-63
2024/01/31 09:40:14;;;;;;;17.88;13.00;;;;;;;;;;5028060;28;20205;-63
2024/01/31 09:42:40;;;;;;;22.38;12.35;;;;;;;;;;5028165;28;20291;-61
2024/01/31 09:45:07;;;;;;;16.30;11.07;;;;;;;;;;5028908;28;20217;-62
2024/01/31 09:47:37;;;;;;;16.90;11.52;;;;;;;;;;5030892;28;20241;-62
2024/01/31 09:50:03;;;;;;;15.95;11.57;;;;;;;;;;5049296;28;20275;-62
2024/01/31 09:52:30;;;;;;;18.23;11.35;;;;;;;;;;5038805;28;20836;-63
2024/01/31 09:54:57;;;;;;;16.85;12.60;;;;;;;;;;5046111;28;20718;-62
2024/01/31 09:57:23;;;;;;;17.52;13.85;;;;;;;;;;5033462;28;20222;-61
2024/01/31 09:59:50;;;;;;;19.85;13.55;;;;;;;;;;5029094;28;20209;-61
2024/01/31 10:02:17;;;;;;;22.05;13.20;;;;;;;;;;5030297;28;20213;-61
2024/01/31 10:04:47;;;;;;;20.08;13.60;;;;;;;;;;5029539;28;20217;-62
2024/01/31 10:07:13;;;;;;;21.58;12.85;;;;;;;;;;5035157;28;20257;-62
2024/01/31 10:09:40;;;;;;;14.43;11.20;;;;;;;;;;5046144;28;20257;-62
2024/01/31 10:12:06;;;;;;;15.73;10.68;;;;;;;;;;5026773;28;20636;-63
2024/01/31 10:14:33;;;;;;;13.18;10.35;;;;;;;;;;5026611;28;20217;-61
2024/01/31 10:17:00;;;;;;;12.98;9.60;;;;;;;;;;5041344;28;20319;-62
2024/01/31 10:19:26;;;;;;;11.68;9.98;;;;;;;;;;5046515;28;20757;-62
2024/01/31 10:21:55;;;;;;;12.82;10.38;;;;;;;;;;5039625;28;20218;-62
2024/01/31 10:24:21;;;;;;;16.73;10.75;;;;;;;;;;5046673;28;20296;-63
2024/01/31 10:26:48;;;;;;;16.02;10.57;;;;;;;;;;5028342;28;20610;-62
2024/01/31 10:29:14;;;;;;;20.58;11.63;;;;;;;;;;5026328;28;20223;-62
2024/01/31 10:31:42;;;;;;;15.27;10.00;;;;;;;;;;5026236;28;20275;-62
2024/01/31 10:34:08;;;;;;;14.73;10.07;;;;;;;;;;5026337;28;20245;-59
2024/01/31 10:36:35;;;;;;;15.50;10.48;;;;;;;;;;5031865;28;20229;-64
2024/01/31 10:39:03;;;;;;;13.02;10.30;;;;;;;;;;5026973;28;20272;-64
2024/01/31 10:41:29;;;;;;;13.88;9.88;;;;;;;;;;5026683;28;20233;-66
2024/01/31 10:43:57;;;;;;;16.98;11.00;;;;;;;;;;5042940;28;20275;-64
2024/01/31 10:46:24;;;;;;;17.92;10.38;;;;;;;;;;5037838;28;20233;-64
2024/01/31 10:48:50;;;;;;;15.07;10.88;;;;;;;;;;5026352;28;20217;-64
2024/01/31 10:51:16;;;;;;;19.30;10.85;;;;;;;;;;5041523;28;20278;-64
2024/01/31 10:53:43;;;;;;;13.48;11.55;;;;;;;;;;5046356;28;20217;-63
2024/01/31 10:56:11;;;;;;;17.88;13.05;;;;;;;;;;5045956;28;20224;-63
2024/01/31 10:58:38;;;;;;;15.70;12.68;;;;;;;;;;5045323;28;20215;-62
2024/01/31 11:01:04;;;;;;;16.90;12.85;;;;;;;;;;5025881;28;20239;-64
2024/01/31 11:03:31;;;;;;;16.65;14.00;;;;;;;;;;5025575;28;20638;-64
2024/01/31 11:05:58;;;;;;;17.00;13.32;;;;;;;;;;5025694;28;20230;-62
2024/01/31 11:08:26;;;;;;;20.85;13.10;;;;;;;;;;5026299;28;20210;-64
2024/01/31 11:10:53;;;;;;;23.75;13.32;;;;;;;;;;5025799;28;20240;-64
2024/01/31 11:13:21;;;;;;;17.55;13.15;;;;;;;;;;5025510;28;20275;-63
2024/01/31 11:15:48;;;;;;;20.10;13.85;;;;;;;;;;5039730;28;20310;-62
2024/01/31 11:18:15;;;;;;;17.38;13.63;;;;;;;;;;5042858;28;20213;-64
2024/01/31 11:20:44;;;;;;;23.60;15.23;;;;;;;;;;5025369;28;20296;-61
2024/01/31 11:23:14;;;;;;;23.17;14.25;;;;;;;;;;5026264;28;20210;-61
2024/01/31 11:25:40;;;;;;;23.50;15.25;;;;;;;;;;5024612;28;20598;-61
2024/01/31 11:28:06;;;;;;;22.50;15.68;;;;;;;;;;5035689;28;20204;-62
2024/01/31 11:30:34;;;;;;;20.45;14.57;;;;;;;;;;5033016;28;20578;-63
2024/01/31 11:33:02;;;;;;;18.60;15.30;;;;;;;;;;5044631;28;20209;-63
2024/01/31 11:35:28;;;;;;;23.02;14.90;;;;;;;;;;5045743;28;20621;-63
2024/01/31 11:37:55;;;;;;;21.88;15.10;;;;;;;;;;5029001;28;20205;-62
2024/01/31 11:40:22;;;;;;;24.30;14.57;;;;;;;;;;5037068;28;20262;-61
2024/01/31 11:42:48;;;;;;;24.35;16.10;;;;;;;;;;5045208;28;20201;-64
2024/01/31 11:45:15;;;;;;;23.13;14.63;;;;;;;;;;5049090;28;20228;-62
2024/01/31 11:47:43;;;;;;;21.38;15.25;;;;;;;;;;5036085;28;20205;-62
2024/01/31 11:50:09;;;;;;;21.25;15.98;;;;;;;;;;5024795;28;20202;-63
2024/01/31 11:52:37;;;;;;;21.35;15.07;;;;;;;;;;5025164;28;20230;-63
2024/01/31 11:55:06;;;;;;;20.60;15.35;;;;;;;;;;5025374;28;20709;-64
2024/01/31 11:57:33;;;;;;;19.40;13.95;;;;;;;;;;5025450;28;20210;-63
2024/01/31 11:59:59;;;;;;;14.75;12.63;;;;;;;;;;5024677;28;20210;-63
2024/01/31 12:02:25;;;;;;;19.10;13.63;;;;;;;;;;5024374;28;20214;-63
2024/01/31 12:04:54;;;;;;;18.77;13.13;;;;;;;;;;5029297;28;20461;-62
2024/01/31 12:07:20;;;;;;;18.27;13.05;;;;;;;;;;5044521;28;20237;-61
2024/01/31 12:09:47;;;;;;;17.77;12.73;;;;;;;;;;5044344;28;20275;-62
2024/01/31 12:12:13;;;;;;;22.83;14.43;;;;;;;;;;5033297;28;20224;-63
2024/01/31 12:14:40;;;;;;;17.42;12.38;;;;;;;;;;5024900;28;20218;-61
2024/01/31 12:17:18;;;;;;;17.67;12.52;;;;;;;;;;5024587;28;20283;-61
2024/01/31 12:19:44;;;;;;;24.58;12.23;;;;;;;;;;5031052;28;20830;-64
2024/01/31 12:22:13;;;;;;;19.02;11.68;;;;;;;;;;5044302;28;20279;-64
2024/01/31 12:24:39;;;;;;;18.60;12.40;;;;;;;;;;5043923;28;20236;-65
2024/01/31 12:27:05;;;;;;;17.77;12.57;;;;;;;;;;5044339;28;20229;-64
2024/01/31 12:29:32;;;;;;;18.95;12.52;;;;;;;;;;5043869;28;20631;-64
2024/01/31 12:31:58;;;;;;;15.27;11.25;;;;;;;;;;5044008;28;20624;-63
2024/01/31 12:34:24;;;;;;;13.85;11.10;;;;;;;;;;5041289;28;20740;-63
2024/01/31 12:36:50;;;;;;;18.48;11.18;;;;;;;;;;5024244;28;20371;-64
2024/01/31 12:39:20;;;;;;;13.80;10.13;;;;;;;;;;5024181;28;20222;-64
2024/01/31 12:41:46;;;;;;;18.98;11.77;;;;;;;;;;5024705;28;20202;-63
2024/01/31 12:44:12;;;;;;;17.75;12.48;;;;;;;;;;5030874;28;20212;-62
2024/01/31 12:46:39;;;;;;;20.95;10.93;;;;;;;;;;5043380;28;20283;-62
2024/01/31 12:49:06;;;;;;;18.48;11.27;;;;;;;;;;5032704;28;20222;-64
2024/01/31 12:51:32;;;;;;;19.58;11.63;;;;;;;;;;5029770;28;20224;-64
2024/01/31 12:53:58;;;;;;;17.38;10.93;;;;;;;;;;5041579;28;20205;-63
2024/01/31 12:56:26;;;;;;;18.17;11.02;;;;;;;;;;5040535;28;20667;-64
2024/01/31 12:58:53;;;;;;;15.90;11.18;;;;;;;;;;5039246;28;20213;-63
2024/01/31 13:01:20;;;;;;;23.23;12.15;;;;;;;;;;5023606;28;20300;-63
2024/01/31 13:03:46;;;;;;;22.50;11.75;;;;;;;;;;5023419;28;20296;-63
2024/01/31 13:06:12;;;;;;;14.90;11.88;;;;;;;;;;5038373;28;20233;-63
2024/01/31 13:08:38;;;;;;;14.60;11.02;;;;;;;;;;5044250;28;20205;-63
2024/01/31 13:11:06;;;;;;;15.32;11.05;;;;;;;;;;5040883;28;20221;-63
2024/01/31 13:13:37;;;;;;;14.85;11.77;;;;;;;;;;5023808;28;20734;-63
2024/01/31 13:16:03;;;;;;;18.58;11.85;;;;;;;;;;5024264;28;20225;-64
2024/01/31 13:18:29;;;;;;;19.02;11.90;;;;;;;;;;5036634;28;20262;-63
2024/01/31 13:20:55;;;;;;;14.88;11.95;;;;;;;;;;5032472;28;20209;-63
2024/01/31 13:23:22;;;;;;;14.15;10.18;;;;;;;;;;5037545;28;20637;-63
2024/01/31 13:25:48;;;;;;;19.70;11.85;;;;;;;;;;5023915;28;20291;-63
2024/01/31 13:28:16;;;;;;;16.08;12.23;;;;;;;;;;5035319;28;20216;-62
2024/01/31 13:30:44;;;;;;;19.50;11.68;;;;;;;;;;5036096;28;20704;-62
2024/01/31 13:33:10;;;;;;;16.02;11.38;;;;;;;;;;5023695;28;20225;-62
2024/01/31 13:35:36;;;;;;;15.50;11.40;;;;;;;;;;5036373;28;20636;-62
2024/01/31 13:38:03;;;;;;;15.70;11.95;;;;;;;;;;5044522;28;20209;-62
2024/01/31 13:40:29;;;;;;;19.42;13.45;;;;;;;;;;5031304;28;20241;-63
2024/01/31 13:42:56;;;;;;;21.30;13.82;;;;;;;;;;5037749;28;20738;-62
2024/01/31 13:45:22;;;;;;;19.85;14.60;;;;;;;;;;5048064;28;20784;-62
2024/01/31 13:47:50;;;;;;;18.85;13.45;;;;;;;;;;5048274;28;20267;-61
2024/01/31 13:50:16;;;;;;;18.88;13.10;;;;;;;;;;5041791;28;20216;-64
2024/01/31 13:52:42;;;;;;;19.02;14.95;;;;;;;;;;5031342;28;20310;-64
2024/01/31 13:55:09;;;;;;;23.38;14.75;;;;;;;;;;5048176;28;20221;-62
2024/01/31 13:57:35;;;;;;;22.17;15.57;;;;;;;;;;5047718;28;20212;-62
2024/01/31 14:00:04;;;;;;;21.63;14.07;;;;;;;;;;5047252;28;20209;-61
2024/01/31 14:02:31;;;;;;;20.65;14.23;;;;;;;;;;5047603;28;20209;-63
2024/01/31 14:04:58;;;;;;;16.23;13.77;;;;;;;;;;5047034;28;20262;-62
2024/01/31 14:07:25;;;;;;;22.33;14.35;;;;;;;;;;5041687;28;20229;-62
2024/01/31 14:09:51;;;;;;;19.00;14.02;;;;;;;;;;5038061;28;20272;-62
2024/01/31 14:12:17;;;;;;;20.90;14.25;;;;;;;;;;5027264;28;20248;-61